Harper, TX (78631)

8:59 PM CDT on September 18, 2014 (GMT -0500)
Rancho Milagro | Change Station
CLOSE
Current Station
Personal Weather Station
Location: Harper, TX
Elevation: 2195 ft
Nearby Weather Stations
Active Advisory: Flash Flood Watch

Elev 2195 ft 30.33 °N, 99.24 °W | Updated 3 minutes ago

Overcast
Overcast
70.0 °F
Feels Like 70.0 °F
N
8.9
Wind Variable Wind from NE

Today
High -- | Low -- °F
--% Chance of Precip.
Yesterday
High -- | Low -- °F
Precip. -- in
7:23 AM 7:38 PM
Waning Crescent, 23% visible
Pressure 29.94 in
Visibility 10.0 miles
Clouds Scattered Clouds 1200 ft
Scattered Clouds 6000 ft
Overcast 10000 ft
Dew Point 68 °F
Humidity 93%
Rainfall 0.00 in
Snow Depth Not available.
UV 0 out of 12
Pollen 7.80 out of 12
Air Quality Not available.
Flu Activity Not available.
METAR KT82 190135Z AUTO 07008KT 10SM SCT012 SCT060 OVC100 23/20 A2994 RMK AO2 LTG DSNT N AND SE T02250195

More Conditions Fewer Conditions

Pressure 29.94 in
Visibility 10.0 miles
Clouds Scattered Clouds 1200 ft
Scattered Clouds 6000 ft
Overcast 10000 ft
Dew Point 68 °F
Humidity 93%
Rainfall 0.00 in
Snow Depth Not available.
UV 0 out of 12
Pollen 7.80 out of 12
Air Quality Not available.
Flu Activity Not available.
METAR KT82 190135Z AUTO 07008KT 10SM SCT012 SCT060 OVC100 23/20 A2994 RMK AO2 LTG DSNT N AND SE T02250195

More Conditions Fewer Conditions

Nowcast | as of 7:57 PM CDT on September 18, 2014

Flash Flood Watch in effect until 7 am CDT Friday... Through 11 PM...isolated to scattered showers with embedded isolated thunderstorms will affect all of south-central Texas. Movement of the showers and thunderstorms will be to the east at around 13 mph. Residents can expect between a tenth and a half inch of precipitation...with any of the heavier or slower-moving showers and thunderstorms producing up to an inch to two inches of rainfall through the next few hours.

×

10-Day Weather Forecast

Almanac

Astronomy

Sep. 18, 2014 Rise Set
Actual Time 7:23 AM CDT 7:38 PM CDT
Civil Twilight 6:59 AM CDT 8:02 PM CDT
Nautical Twilight 6:30 AM CDT 8:30 PM CDT
Astronomical Twilight 6:02 AM CDT 8:58 PM CDT
Moon 2:32 AM CDT (9/18) 4:15 PM CDT (9/18)
Length of Visible Light 13h 03m
Length of Day
12h 15m
Tomorrow will be 1m 48s shorter.
Waning Crescent, 23% of the Moon is Illuminated
Today
Waning Crescent
Sep 24
New
Oct 1
First Quarter
Oct 8
Full
Oct 15
Last Quarter

Today's Extremes

State Highs State Lows

Community

WunderPhotos

Upload Photos

1,754,529 photos uploaded!

Nearby

Snow Depth

Station Depth Elevation
No new snow has been reported.

Earthquake Activity

City Distance Mag. Time & Date
No recent earthquake activity has been reported nearby.
Minimum magnitude displayed is 2.5.

Coastal Water Temperatures

Place Temperature
No Stations Reporting

Nearby Weather Stations